Time;durP1;ratioP1;P1;durP2;ratioP2;P2;SDS_P1;SDS_P2;PMS_P1;PMS_P2;Temp;Humidity;BMP_temperature;BMP_pressure;BME280_temperature;BME280_humidity;BME280_pressure;Samples;Min_cycle;Max_cycle;Signal;HPM_P1;HPM_P2
2022/08/23 00:01:55;;;;;;;;;;;21.00;93.40;;;;;;5032416;28;19913;-50
2022/08/23 00:04:22;;;;;;;;;;;21.10;93.40;;;;;;5031976;28;19925;-52
2022/08/23 00:06:48;;;;;;;;;;;21.10;93.30;;;;;;5032418;28;20389;-51
2022/08/23 00:09:15;;;;;;;;;;;21.10;93.30;;;;;;5032565;28;20051;-50
2022/08/23 00:11:43;;;;;;;;;;;21.10;93.30;;;;;;5032237;28;19940;-48
2022/08/23 00:14:11;;;;;;;;;;;21.00;93.60;;;;;;5032552;28;19916;-50
2022/08/23 00:16:37;;;;;;;;;;;21.00;93.70;;;;;;5029741;28;20355;-51
2022/08/23 00:19:04;;;;;;;;;;;21.00;93.90;;;;;;5031312;28;20327;-52
2022/08/23 00:21:29;;;;;;;;;;;21.00;94.10;;;;;;5030428;28;19928;-48
2022/08/23 00:23:55;;;;;;;;;;;21.10;94.20;;;;;;5032063;28;19913;-51
2022/08/23 00:26:21;;;;;;;;;;;21.00;94.20;;;;;;5031401;28;19920;-53
2022/08/23 00:28:48;;;;;;;;;;;21.00;94.00;;;;;;5031401;28;19920;-53
2022/08/23 00:31:13;;;;;;;;;;;20.90;93.90;;;;;;5031974;28;19959;-51
2022/08/23 00:33:39;;;;;;;;;;;20.90;93.80;;;;;;5031290;28;19917;-48
2022/08/23 00:36:05;;;;;;;;;;;20.90;93.80;;;;;;5030918;28;19976;-54
2022/08/23 00:38:30;;;;;;;;;;;20.80;93.80;;;;;;5030968;28;19974;-50
2022/08/23 00:40:56;;;;;;;;;;;20.80;93.70;;;;;;5031191;28;19963;-49
2022/08/23 00:48:59;;;;;;;;;;;20.70;93.80;;;;;;5030889;28;19913;-47
2022/08/23 00:51:24;;;;;;;;;;;20.70;93.90;;;;;;5030873;28;19925;-47
2022/08/23 00:53:54;;;;;;;;;;;20.70;94.00;;;;;;5030833;28;19936;-51
2022/08/23 00:56:21;;;;;;;;;;;20.70;93.90;;;;;;5029278;28;20582;-53
2022/08/23 00:58:48;;;;;;;;;;;20.70;93.60;;;;;;5030587;28;20285;-52
2022/08/23 01:01:13;;;;;;;;;;;20.60;93.80;;;;;;5031721;28;19955;-51
2022/08/23 01:03:41;;;;;;;;;;;20.50;94.00;;;;;;5030441;28;19917;-51
2022/08/23 01:06:10;;;;;;;;;;;20.60;94.50;;;;;;5030655;28;20067;-54
2022/08/23 01:08:37;;;;;;;;;;;20.60;94.20;;;;;;5031065;28;20347;-47
2022/08/23 01:11:07;;;;;;;;;;;20.60;94.30;;;;;;5031393;28;20007;-48
2022/08/23 01:13:44;;;;;;;;;;;20.60;94.50;;;;;;5031683;28;19932;-51
2022/08/23 01:16:12;;;;;;;;;;;20.70;94.60;;;;;;5030842;28;19917;-48
2022/08/23 01:18:38;;;;;;;;;;;20.60;94.80;;;;;;5030563;28;19920;-50
2022/08/23 01:21:15;;;;;;;;;;;20.60;95.10;;;;;;5032011;28;19920;-51
2022/08/23 01:23:45;;;;;;;;;;;20.50;95.30;;;;;;5031435;28;20484;-51
2022/08/23 01:26:12;;;;;;;;;;;20.40;95.40;;;;;;5031149;28;19913;-50
2022/08/23 01:28:39;;;;;;;;;;;20.40;95.60;;;;;;5031029;28;19967;-50
2022/08/23 01:31:06;;;;;;;;;;;20.40;95.80;;;;;;5031237;28;19910;-50
2022/08/23 01:33:31;;;;;;;;;;;20.40;95.60;;;;;;5031518;28;20024;-51
2022/08/23 01:35:57;;;;;;;;;;;20.30;95.70;;;;;;5030844;28;20004;-50
2022/08/23 01:38:23;;;;;;;;;;;20.30;95.80;;;;;;5030435;28;19913;-49
2022/08/23 01:40:49;;;;;;;;;;;20.30;95.90;;;;;;5031318;28;20012;-50
2022/08/23 01:43:17;;;;;;;;;;;20.30;96.10;;;;;;5031386;28;19975;-49
2022/08/23 01:45:43;;;;;;;;;;;20.30;96.20;;;;;;5030177;28;20008;-49
2022/08/23 01:48:08;;;;;;;;;;;20.10;95.90;;;;;;5030657;28;19952;-52
2022/08/23 01:50:34;;;;;;;;;;;20.00;96.50;;;;;;5031145;28;19944;-49
2022/08/23 01:53:00;;;;;;;;;;;19.70;96.90;;;;;;5030669;28;19956;-51
2022/08/23 01:55:26;;;;;;;;;;;19.60;97.50;;;;;;5030684;28;19917;-55
2022/08/23 01:57:53;;;;;;;;;;;19.60;97.60;;;;;;5030049;28;20423;-54
2022/08/23 02:00:19;;;;;;;;;;;19.70;97.60;;;;;;5031165;28;19959;-53
2022/08/23 02:02:45;;;;;;;;;;;19.70;97.70;;;;;;5031245;28;20319;-53
2022/08/23 02:05:11;;;;;;;;;;;19.70;97.70;;;;;;5030803;28;19925;-55
2022/08/23 02:07:37;;;;;;;;;;;19.80;97.80;;;;;;5030223;28;19913;-53
2022/08/23 02:10:03;;;;;;;;;;;19.80;97.70;;;;;;5033563;28;19924;-50
2022/08/23 02:12:29;;;;;;;;;;;19.90;97.80;;;;;;5034873;28;19913;-54
2022/08/23 02:14:55;;;;;;;;;;;19.90;98.00;;;;;;5035133;28;20525;-56
2022/08/23 02:17:21;;;;;;;;;;;19.90;98.00;;;;;;5034044;28;19921;-54
2022/08/23 02:19:47;;;;;;;;;;;19.80;98.10;;;;;;5035074;28;19920;-52
2022/08/23 02:22:12;;;;;;;;;;;19.80;98.20;;;;;;5034633;28;19964;-52
2022/08/23 02:24:39;;;;;;;;;;;19.80;98.10;;;;;;5034625;28;19980;-50
2022/08/23 02:27:04;;;;;;;;;;;19.70;98.00;;;;;;5034056;28;19924;-52
2022/08/23 02:29:30;;;;;;;;;;;19.60;98.10;;;;;;5049961;28;20295;-55
2022/08/23 02:31:57;;;;;;;;;;;19.60;98.10;;;;;;5034929;28;19964;-53
2022/08/23 02:34:22;;;;;;;;;;;19.70;98.10;;;;;;5034703;28;19967;-53
2022/08/23 02:36:48;;;;;;;;;;;19.70;98.20;;;;;;5033816;28;20300;-54
2022/08/23 02:39:15;;;;;;;;;;;19.70;98.20;;;;;;5034163;28;19925;-54
2022/08/23 02:41:41;;;;;;;;;;;19.70;98.30;;;;;;5034122;28;19913;-51
2022/08/23 02:44:06;;;;;;;;;;;19.70;98.40;;;;;;5034031;28;20344;-52
2022/08/23 02:46:32;;;;;;;;;;;19.70;98.40;;;;;;5034472;28;19921;-53
2022/08/23 02:48:58;;;;;;;;;;;19.70;98.30;;;;;;5032660;28;19924;-53
2022/08/23 02:51:24;;;;;;;;;;;19.70;98.50;;;;;;5034681;28;19914;-48
2022/08/23 02:53:49;;;;;;;;;;;19.60;98.60;;;;;;5033991;28;19963;-48
2022/08/23 02:56:16;;;;;;;;;;;19.60;98.60;;;;;;5033366;28;20007;-50
2022/08/23 02:58:42;;;;;;;;;;;19.60;98.70;;;;;;5034017;28;20281;-48
2022/08/23 03:01:17;;;;;;;;;;;19.60;98.70;;;;;;5033815;28;19967;-53
2022/08/23 03:03:42;;;;;;;;;;;19.50;98.80;;;;;;5033537;28;19983;-49
2022/08/23 03:06:08;;;;;;;;;;;19.50;99.00;;;;;;5033872;28;20526;-54
2022/08/23 03:08:34;;;;;;;;;;;19.50;99.00;;;;;;5033390;28;19924;-50
2022/08/23 03:10:59;;;;;;;;;;;19.50;99.20;;;;;;5033352;28;19917;-49
2022/08/23 03:13:25;;;;;;;;;;;19.40;99.20;;;;;;5034241;28;19960;-50
2022/08/23 03:15:50;;;;;;;;;;;19.30;99.40;;;;;;5032782;28;19933;-48
2022/08/23 03:18:16;;;;;;;;;;;19.20;99.60;;;;;;5036772;28;19928;-48
2022/08/23 03:20:41;;;;;;;;;;;19.30;99.70;;;;;;5037530;28;19999;-52
2022/08/23 03:23:08;;;;;;;;;;;19.30;99.70;;;;;;5039829;28;19917;-51
2022/08/23 03:25:33;;;;;;;;;;;19.30;99.80;;;;;;5041099;28;19913;-48
2022/08/23 03:28:05;;;;;;;;;;;19.20;99.70;;;;;;5042719;28;19924;-48
2022/08/23 03:30:32;;;;;;;;;;;19.20;99.70;;;;;;5039126;28;20019;-53
2022/08/23 03:32:58;;;;;;;;;;;19.20;99.70;;;;;;5034420;28;20315;-52
2022/08/23 03:35:24;;;;;;;;;;;19.20;99.80;;;;;;5033423;28;19917;-49
2022/08/23 03:37:50;;;;;;;;;;;19.10;99.70;;;;;;5032638;28;20578;-52
2022/08/23 03:40:16;;;;;;;;;;;19.20;99.80;;;;;;5033198;28;20328;-54
2022/08/23 03:42:42;;;;;;;;;;;19.10;99.80;;;;;;5033677;28;19932;-53
2022/08/23 03:45:07;;;;;;;;;;;19.10;99.80;;;;;;5032515;28;19967;-47
2022/08/23 03:47:33;;;;;;;;;;;19.20;99.80;;;;;;5032724;28;19914;-50
2022/08/23 03:49:58;;;;;;;;;;;19.20;99.60;;;;;;5033147;28;19991;-53
2022/08/23 03:52:24;;;;;;;;;;;19.20;99.60;;;;;;5033150;28;19971;-49
2022/08/23 03:54:49;;;;;;;;;;;19.20;99.60;;;;;;5032770;28;20346;-52
2022/08/23 03:57:15;;;;;;;;;;;19.20;99.60;;;;;;5032038;28;20038;-49
2022/08/23 03:59:41;;;;;;;;;;;19.10;99.60;;;;;;5033056;28;20379;-49
2022/08/23 04:02:07;;;;;;;;;;;19.00;99.70;;;;;;5033080;28;20376;-53
2022/08/23 04:04:32;;;;;;;;;;;19.00;99.90;;;;;;5033086;28;19921;-51
2022/08/23 04:06:58;;;;;;;;;;;19.00;99.90;;;;;;5032309;28;20284;-52
2022/08/23 04:09:24;;;;;;;;;;;19.00;99.90;;;;;;5032448;28;20349;-51
2022/08/23 04:11:51;;;;;;;;;;;19.00;99.90;;;;;;5031182;28;19975;-51
2022/08/23 04:14:17;;;;;;;;;;;19.00;99.90;;;;;;5032193;28;19912;-52
2022/08/23 04:16:43;;;;;;;;;;;19.00;99.90;;;;;;5032035;28;19932;-49
2022/08/23 04:19:11;;;;;;;;;;;19.00;99.90;;;;;;5032305;28;20322;-53
2022/08/23 04:21:38;;;;;;;;;;;19.10;99.80;;;;;;5032902;28;20369;-52
2022/08/23 04:24:04;;;;;;;;;;;19.00;99.80;;;;;;5032335;28;19936;-49
2022/08/23 04:26:30;;;;;;;;;;;19.10;99.70;;;;;;5031834;28;19913;-47
2022/08/23 04:28:55;;;;;;;;;;;19.00;99.80;;;;;;5032701;28;19909;-53
2022/08/23 04:31:21;;;;;;;;;;;19.00;99.80;;;;;;5031250;28;19971;-50
2022/08/23 04:33:47;;;;;;;;;;;19.00;99.90;;;;;;5032380;28;19932;-51
2022/08/23 04:36:12;;;;;;;;;;;19.00;99.90;;;;;;5031069;28;19996;-53
2022/08/23 04:38:38;;;;;;;;;;;18.90;99.90;;;;;;5031764;28;20002;-53
2022/08/23 04:43:48;;;;;;;;;;;18.80;99.90;;;;;;5031933;28;20372;-50
2022/08/23 04:46:14;;;;;;;;;;;18.70;99.90;;;;;;5031261;28;19913;-50
2022/08/23 04:48:40;;;;;;;;;;;18.70;99.90;;;;;;5031689;28;20342;-52
2022/08/23 04:51:06;;;;;;;;;;;18.80;99.90;;;;;;5031320;28;19932;-52
2022/08/23 04:53:34;;;;;;;;;;;18.80;99.90;;;;;;5032243;28;20381;-49
2022/08/23 04:56:01;;;;;;;;;;;18.70;99.90;;;;;;5031527;28;19928;-52
2022/08/23 04:58:27;;;;;;;;;;;18.70;99.90;;;;;;5031184;28;19920;-48
2022/08/23 05:00:52;;;;;;;;;;;18.80;99.90;;;;;;5031884;28;19919;-50
2022/08/23 05:03:18;;;;;;;;;;;18.90;99.90;;;;;;5031312;28;19917;-52
2022/08/23 05:05:44;;;;;;;;;;;18.90;99.90;;;;;;5032036;28;19917;-53
2022/08/23 05:08:09;;;;;;;;;;;18.90;99.90;;;;;;5031226;28;20016;-54
2022/08/23 05:10:35;;;;;;;;;;;18.90;99.90;;;;;;5031601;28;19921;-52
2022/08/23 05:13:00;;;;;;;;;;;18.80;99.90;;;;;;5031789;28;19925;-50
2022/08/23 05:15:26;;;;;;;;;;;18.80;99.90;;;;;;5030324;28;19917;-56
2022/08/23 05:17:52;;;;;;;;;;;18.70;99.90;;;;;;5030520;28;19971;-49
2022/08/23 05:20:17;;;;;;;;;;;18.70;99.90;;;;;;5030986;28;19917;-48
2022/08/23 05:22:43;;;;;;;;;;;18.70;99.90;;;;;;5031531;28;20011;-50
2022/08/23 05:25:09;;;;;;;;;;;18.70;99.90;;;;;;5031829;28;19925;-54
2022/08/23 05:27:34;;;;;;;;;;;18.70;99.90;;;;;;5031240;28;20311;-53
2022/08/23 05:30:00;;;;;;;;;;;18.50;99.90;;;;;;5031837;28;19925;-48
2022/08/23 05:32:26;;;;;;;;;;;18.40;99.90;;;;;;5012695;28;19959;-51
2022/08/23 05:34:51;;;;;;;;;;;18.50;99.90;;;;;;5015119;28;20292;-50
2022/08/23 05:37:17;;;;;;;;;;;18.50;99.90;;;;;;5030823;28;19925;-51
2022/08/23 05:39:42;;;;;;;;;;;18.50;99.90;;;;;;5030429;28;19924;-47
2022/08/23 05:42:09;;;;;;;;;;;18.50;99.90;;;;;;5029645;28;19921;-54
2022/08/23 05:44:36;;;;;;;;;;;18.60;99.90;;;;;;5031058;28;19924;-53
2022/08/23 05:47:03;;;;;;;;;;;18.60;99.90;;;;;;5029669;28;20020;-53
2022/08/23 05:49:29;;;;;;;;;;;18.80;99.80;;;;;;5030964;28;20020;-52
2022/08/23 05:51:55;;;;;;;;;;;18.80;99.90;;;;;;5026025;28;20012;-53
2022/08/23 05:54:21;;;;;;;;;;;18.90;99.90;;;;;;5031800;28;19909;-51
2022/08/23 05:56:46;;;;;;;;;;;19.00;99.90;;;;;;5028371;28;19944;-52
2022/08/23 05:59:14;;;;;;;;;;;18.90;99.90;;;;;;5030953;28;19922;-52
2022/08/23 06:01:40;;;;;;;;;;;19.00;99.70;;;;;;5030633;28;19959;-52
2022/08/23 06:04:07;;;;;;;;;;;19.00;99.70;;;;;;5029572;28;19921;-52
2022/08/23 06:06:33;;;;;;;;;;;19.00;99.40;;;;;;5029997;28;20340;-52
2022/08/23 06:08:59;;;;;;;;;;;19.00;99.60;;;;;;5030663;28;19913;-50
2022/08/23 06:11:26;;;;;;;;;;;19.00;99.70;;;;;;5030706;28;20288;-49
2022/08/23 06:13:53;;;;;;;;;;;19.00;99.90;;;;;;5029966;28;19921;-51
2022/08/23 06:16:20;;;;;;;;;;;19.00;99.90;;;;;;5028272;28;19940;-52
2022/08/23 06:18:46;;;;;;;;;;;19.00;99.90;;;;;;5030091;28;20012;-51
2022/08/23 06:21:12;;;;;;;;;;;19.10;99.80;;;;;;5030895;28;20582;-50
2022/08/23 06:23:38;;;;;;;;;;;19.20;99.80;;;;;;5031562;28;20008;-55
2022/08/23 06:26:11;;;;;;;;;;;19.30;99.50;;;;;;5030041;28;19994;-51
2022/08/23 06:28:37;;;;;;;;;;;19.40;99.30;;;;;;5028812;28;19909;-51
2022/08/23 06:31:02;;;;;;;;;;;19.40;99.60;;;;;;5030307;28;19921;-53
2022/08/23 06:33:29;;;;;;;;;;;19.40;99.30;;;;;;5030830;28;20365;-55
2022/08/23 06:36:05;;;;;;;;;;;19.50;99.30;;;;;;5029961;28;19927;-55
2022/08/23 06:38:30;;;;;;;;;;;19.50;99.40;;;;;;5030929;28;20012;-55
2022/08/23 06:41:04;;;;;;;;;;;19.60;99.00;;;;;;5031059;28;20342;-53
2022/08/23 06:43:30;;;;;;;;;;;19.50;99.20;;;;;;5030167;28;19913;-54
2022/08/23 06:46:25;;;;;;;;;;;19.60;99.00;;;;;;5030676;28;19909;-53
2022/08/23 06:48:52;;;;;;;;;;;19.70;99.00;;;;;;5029527;28;20312;-52
2022/08/23 06:51:26;;;;;;;;;;;19.80;98.90;;;;;;5030675;28;19994;-51
2022/08/23 06:53:53;;;;;;;;;;;19.80;98.60;;;;;;5030950;28;20438;-49
2022/08/23 06:56:20;;;;;;;;;;;19.70;98.50;;;;;;5033498;28;19982;-49
2022/08/23 06:58:45;;;;;;;;;;;19.90;98.50;;;;;;5032838;28;19909;-53
2022/08/23 07:01:17;;;;;;;;;;;20.00;98.20;;;;;;5035724;28;19921;-54
2022/08/23 07:03:42;;;;;;;;;;;19.90;98.50;;;;;;5049787;28;19913;-51
2022/08/23 07:06:08;;;;;;;;;;;19.90;98.40;;;;;;5032244;28;19925;-53
2022/08/23 07:08:33;;;;;;;;;;;20.00;98.30;;;;;;5048558;28;19917;-53
2022/08/23 07:10:59;;;;;;;;;;;20.10;98.20;;;;;;5034027;28;20281;-52
2022/08/23 07:13:25;;;;;;;;;;;20.20;98.20;;;;;;5034690;28;19913;-53
2022/08/23 07:15:55;;;;;;;;;;;20.30;97.90;;;;;;5034058;28;19917;-47
2022/08/23 07:18:20;;;;;;;;;;;20.40;97.90;;;;;;5031876;28;20388;-50
2022/08/23 07:20:46;;;;;;;;;;;20.60;97.60;;;;;;5033174;28;19917;-54
2022/08/23 07:23:11;;;;;;;;;;;20.60;97.60;;;;;;5033635;28;19920;-53
2022/08/23 07:25:39;;;;;;;;;;;20.80;97.40;;;;;;5034168;28;19914;-51
2022/08/23 07:28:04;;;;;;;;;;;20.90;97.30;;;;;;5032505;28;19913;-50
2022/08/23 07:30:30;;;;;;;;;;;20.80;97.40;;;;;;5045539;28;19913;-53
2022/08/23 07:32:55;;;;;;;;;;;20.90;97.40;;;;;;5032892;28;19913;-52
2022/08/23 07:35:21;;;;;;;;;;;20.80;97.80;;;;;;5033396;28;19932;-48
2022/08/23 07:37:46;;;;;;;;;;;20.90;97.90;;;;;;5032283;28;19975;-50
2022/08/23 07:40:12;;;;;;;;;;;20.80;98.00;;;;;;5031854;28;19917;-53
2022/08/23 07:42:37;;;;;;;;;;;20.90;97.90;;;;;;5033068;28;19917;-54
2022/08/23 07:45:03;;;;;;;;;;;21.00;97.70;;;;;;5033168;28;20184;-48
2022/08/23 07:47:29;;;;;;;;;;;21.10;97.60;;;;;;5032644;28;19932;-50
2022/08/23 07:49:55;;;;;;;;;;;21.10;97.50;;;;;;5031410;28;20131;-51
2022/08/23 07:52:20;;;;;;;;;;;21.30;97.40;;;;;;5031296;28;19918;-50
2022/08/23 07:54:46;;;;;;;;;;;21.40;97.00;;;;;;5031775;28;19928;-50
2022/08/23 07:57:11;;;;;;;;;;;21.50;96.80;;;;;;5030177;28;19928;-53
2022/08/23 07:59:37;;;;;;;;;;;21.50;96.40;;;;;;5031765;28;20266;-51
2022/08/23 08:02:03;;;;;;;;;;;21.40;96.50;;;;;;5032013;28;20431;-55
2022/08/23 08:04:28;;;;;;;;;;;21.40;96.30;;;;;;5032818;28;19909;-54
2022/08/23 08:06:55;;;;;;;;;;;21.30;96.70;;;;;;5029199;28;20051;-51
2022/08/23 08:09:21;;;;;;;;;;;21.20;96.90;;;;;;5031326;28;19909;-53
2022/08/23 08:11:47;;;;;;;;;;;21.30;96.40;;;;;;5032163;28;20487;-54
2022/08/23 08:14:14;;;;;;;;;;;21.40;96.10;;;;;;5033471;28;19909;-51
2022/08/23 08:16:41;;;;;;;;;;;21.50;96.30;;;;;;5031299;28;19927;-51
2022/08/23 08:19:08;;;;;;;;;;;21.60;96.00;;;;;;5025699;28;20389;-54
2022/08/23 08:21:35;;;;;;;;;;;21.70;95.90;;;;;;5032537;28;19967;-52
2022/08/23 08:24:01;;;;;;;;;;;21.90;95.80;;;;;;5032468;28;19916;-52
2022/08/23 08:26:27;;;;;;;;;;;22.10;95.30;;;;;;5031490;28;21048;-52
2022/08/23 08:28:55;;;;;;;;;;;22.10;95.10;;;;;;5032896;28;19910;-49
2022/08/23 08:31:21;;;;;;;;;;;21.90;95.30;;;;;;5032965;28;19909;-49
2022/08/23 08:33:46;;;;;;;;;;;21.90;95.30;;;;;;5032762;28;19920;-51
2022/08/23 08:36:31;;;;;;;;;;;22.00;95.30;;;;;;5032112;28;19940;-51
2022/08/23 08:38:57;;;;;;;;;;;22.00;95.30;;;;;;5032765;28;19976;-51
2022/08/23 08:41:27;;;;;;;;;;;22.20;95.00;;;;;;5033368;28;19913;-48
2022/08/23 08:44:02;;;;;;;;;;;22.30;94.80;;;;;;5038842;28;20288;-49
2022/08/23 08:46:31;;;;;;;;;;;22.40;94.80;;;;;;5036890;28;19913;-52
2022/08/23 08:48:59;;;;;;;;;;;22.30;94.50;;;;;;5035639;28;19909;-54
2022/08/23 08:51:24;;;;;;;;;;;22.30;94.50;;;;;;5032438;28;19913;-50
2022/08/23 08:53:50;;;;;;;;;;;22.20;94.70;;;;;;5032444;28;20373;-54
2022/08/23 08:56:20;;;;;;;;;;;22.50;94.70;;;;;;5031883;28;20567;-49
2022/08/23 08:58:57;;;;;;;;;;;22.80;94.30;;;;;;5030834;28;19909;-49
2022/08/23 09:01:25;;;;;;;;;;;23.00;93.70;;;;;;5032337;28;19980;-56
2022/08/23 09:03:50;;;;;;;;;;;22.80;93.80;;;;;;5032180;28;19909;-56
2022/08/23 09:06:25;;;;;;;;;;;22.60;94.30;;;;;;5031778;28;19913;-55
2022/08/23 09:09:00;;;;;;;;;;;22.70;94.20;;;;;;5032264;28;19931;-53
2022/08/23 09:11:35;;;;;;;;;;;22.90;94.20;;;;;;5031569;28;20234;-54
2022/08/23 09:14:08;;;;;;;;;;;23.00;93.80;;;;;;5032081;28;20113;-56
2022/08/23 09:16:47;;;;;;;;;;;23.10;93.30;;;;;;5031279;28;19975;-57
2022/08/23 09:19:13;;;;;;;;;;;23.10;93.30;;;;;;5031178;28;19919;-54
2022/08/23 09:21:56;;;;;;;;;;;23.00;93.30;;;;;;5031331;28;19913;-53
2022/08/23 09:24:22;;;;;;;;;;;23.10;92.60;;;;;;5032222;28;20392;-54
2022/08/23 09:26:47;;;;;;;;;;;23.00;92.80;;;;;;5029766;28;19967;-53
2022/08/23 09:29:16;;;;;;;;;;;23.10;92.80;;;;;;5032111;28;19913;-54
2022/08/23 09:31:43;;;;;;;;;;;23.20;92.90;;;;;;5030751;28;19917;-56
2022/08/23 09:34:17;;;;;;;;;;;23.30;92.40;;;;;;5031764;28;19909;-56
2022/08/23 09:36:43;;;;;;;;;;;23.30;92.30;;;;;;5030672;28;19928;-53
2022/08/23 09:39:23;;;;;;;;;;;23.40;91.90;;;;;;5031572;28;19920;-54
2022/08/23 09:41:51;;;;;;;;;;;23.40;92.00;;;;;;5030411;28;20212;-55
2022/08/23 09:44:49;;;;;;;;;;;23.50;92.00;;;;;;5031425;28;19913;-58
2022/08/23 09:47:15;;;;;;;;;;;23.80;91.80;;;;;;5039984;28;20004;-53
2022/08/23 09:49:42;;;;;;;;;;;24.00;91.30;;;;;;5031758;28;20456;-56
2022/08/23 09:52:13;;;;;;;;;;;23.90;91.20;;;;;;5031905;28;19908;-54
2022/08/23 09:54:40;;;;;;;;;;;23.70;91.40;;;;;;5032009;28;19921;-54
2022/08/23 09:57:09;;;;;;;;;;;23.50;91.60;;;;;;5030708;28;19920;-53
2022/08/23 09:59:42;;;;;;;;;;;23.50;92.00;;;;;;5032087;28;19917;-59
2022/08/23 10:02:13;;;;;;;;;;;23.80;91.70;;;;;;5031825;28;19949;-51
2022/08/23 10:04:42;;;;;;;;;;;24.00;91.20;;;;;;5031976;28;19913;-57
2022/08/23 10:07:28;;;;;;;;;;;24.00;91.20;;;;;;5029931;28;19956;-59
2022/08/23 10:10:11;;;;;;;;;;;23.80;91.30;;;;;;5031743;28;19917;-56
2022/08/23 10:12:36;;;;;;;;;;;23.90;91.30;;;;;;5031201;28;20435;-55
2022/08/23 10:15:02;;;;;;;;;;;24.00;91.20;;;;;;5030677;28;19909;-54
2022/08/23 10:17:37;;;;;;;;;;;24.10;91.30;;;;;;5020398;28;20408;-57
2022/08/23 10:20:14;;;;;;;;;;;24.30;90.90;;;;;;5010832;28;19910;-56
2022/08/23 10:22:44;;;;;;;;;;;24.60;90.60;;;;;;5029655;28;19932;-55
2022/08/23 10:25:16;;;;;;;;;;;24.80;90.10;;;;;;5032385;28;19952;-53
2022/08/23 10:30:54;;;;;;;;;;;24.70;90.10;;;;;;5034361;28;20265;-54
2022/08/23 10:33:28;;;;;;;;;;;24.60;90.00;;;;;;5035794;28;19909;-56
2022/08/23 10:36:03;;;;;;;;;;;24.50;89.60;;;;;;5034975;28;20431;-55
2022/08/23 10:38:29;;;;;;;;;;;24.60;89.70;;;;;;5033898;28;19919;-51
2022/08/23 10:41:00;;;;;;;;;;;24.40;89.60;;;;;;5034412;28;20004;-52
2022/08/23 10:43:32;;;;;;;;;;;24.30;89.40;;;;;;5034047;28;20362;-56
2022/08/23 10:46:01;;;;;;;;;;;24.20;89.50;;;;;;5033860;28;19920;-55
2022/08/23 10:48:29;;;;;;;;;;;24.30;88.40;;;;;;5033669;28;19970;-54
2022/08/23 10:50:56;;;;;;;;;;;24.40;88.90;;;;;;5034269;28;19917;-48
2022/08/23 10:53:45;;;;;;;;;;;24.80;87.90;;;;;;5050134;28;19917;-50
2022/08/23 10:56:16;;;;;;;;;;;25.10;87.00;;;;;;5034432;28;19920;-52
2022/08/23 10:58:45;;;;;;;;;;;25.40;86.00;;;;;;5034371;28;19924;-50
2022/08/23 11:01:20;;;;;;;;;;;25.40;85.80;;;;;;5033027;28;19944;-50
2022/08/23 11:03:55;;;;;;;;;;;25.70;85.00;;;;;;5034543;28;19909;-53
2022/08/23 11:06:24;;;;;;;;;;;25.90;85.60;;;;;;5050153;28;19944;-54
2022/08/23 11:09:19;;;;;;;;;;;26.00;84.60;;;;;;5034541;28;19916;-54
2022/08/23 11:12:01;;;;;;;;;;;25.70;84.80;;;;;;5033693;28;19913;-54
2022/08/23 11:14:35;;;;;;;;;;;25.30;85.40;;;;;;5034478;28;19913;-51
2022/08/23 11:17:01;;;;;;;;;;;25.20;85.70;;;;;;5030387;28;19953;-52
2022/08/23 11:19:46;;;;;;;;;;;25.20;86.00;;;;;;5014582;28;19910;-52
2022/08/23 11:22:15;;;;;;;;;;;25.40;85.40;;;;;;5013510;28;19944;-54
2022/08/23 11:24:49;;;;;;;;;;;25.50;84.90;;;;;;5033649;28;19913;-57
2022/08/23 11:27:24;;;;;;;;;;;25.60;85.10;;;;;;5033752;28;19940;-52
2022/08/23 11:29:50;;;;;;;;;;;25.40;84.50;;;;;;5014352;28;20392;-49
2022/08/23 11:32:16;;;;;;;;;;;25.30;84.50;;;;;;5014447;28;19920;-54
2022/08/23 11:34:41;;;;;;;;;;;25.10;84.90;;;;;;5032089;28;19913;-53
2022/08/23 11:37:16;;;;;;;;;;;25.00;85.40;;;;;;5033499;28;20365;-52
2022/08/23 11:39:57;;;;;;;;;;;24.80;86.00;;;;;;5034027;28;19939;-50
2022/08/23 11:42:28;;;;;;;;;;;24.80;86.70;;;;;;5033214;28;19921;-52
2022/08/23 11:44:54;;;;;;;;;;;24.70;86.20;;;;;;5032777;28;19917;-54
2022/08/23 11:47:46;;;;;;;;;;;25.00;85.90;;;;;;5036832;28;19917;-52
2022/08/23 11:50:20;;;;;;;;;;;25.20;85.90;;;;;;5040472;28;19913;-55
2022/08/23 11:52:51;;;;;;;;;;;25.60;85.10;;;;;;5036522;28;19919;-51
2022/08/23 11:55:24;;;;;;;;;;;25.80;84.10;;;;;;5036506;28;19913;-50
2022/08/23 11:58:08;;;;;;;;;;;26.00;82.90;;;;;;5031969;28;19976;-56
2022/08/23 12:00:46;;;;;;;;;;;26.20;82.00;;;;;;5049245;28;19909;-52
2022/08/23 12:03:31;;;;;;;;;;;26.40;81.80;;;;;;5048759;28;19924;-55
2022/08/23 12:06:09;;;;;;;;;;;26.30;81.70;;;;;;5033337;28;19936;-54
2022/08/23 12:08:48;;;;;;;;;;;26.40;81.40;;;;;;5032430;28;19917;-52
2022/08/23 12:11:15;;;;;;;;;;;26.40;81.50;;;;;;5032863;28;19917;-57
2022/08/23 12:13:53;;;;;;;;;;;26.20;82.40;;;;;;5032927;28;20404;-53
2022/08/23 12:16:18;;;;;;;;;;;26.00;83.20;;;;;;5033257;28;19948;-56
2022/08/23 12:18:44;;;;;;;;;;;25.70;84.20;;;;;;5024878;28;19987;-53
2022/08/23 12:21:18;;;;;;;;;;;25.50;84.20;;;;;;5032681;28;19916;-51
2022/08/23 12:23:45;;;;;;;;;;;25.30;84.00;;;;;;5032619;28;19913;-52
2022/08/23 12:26:21;;;;;;;;;;;25.10;84.60;;;;;;5033140;28;19917;-54
2022/08/23 12:28:48;;;;;;;;;;;25.10;84.90;;;;;;5031171;28;20404;-53
2022/08/23 12:31:20;;;;;;;;;;;25.30;85.20;;;;;;4999251;28;20259;-52
2022/08/23 12:33:46;;;;;;;;;;;25.50;84.80;;;;;;5021121;28;20376;-51
2022/08/23 12:36:14;;;;;;;;;;;25.80;83.90;;;;;;5032901;28;19921;-53
2022/08/23 12:38:47;;;;;;;;;;;26.20;82.70;;;;;;5031404;28;20377;-55
2022/08/23 12:41:23;;;;;;;;;;;26.50;81.70;;;;;;5032930;28;19916;-54
2022/08/23 12:43:59;;;;;;;;;;;26.50;80.90;;;;;;5032833;28;19916;-54
2022/08/23 12:46:30;;;;;;;;;;;26.60;80.60;;;;;;5032684;28;20377;-54
2022/08/23 12:48:55;;;;;;;;;;;26.80;80.80;;;;;;5032507;28;19994;-56
2022/08/23 12:51:21;;;;;;;;;;;27.00;80.60;;;;;;5031941;28;19921;-53
2022/08/23 12:53:46;;;;;;;;;;;27.10;78.90;;;;;;5030478;28;19921;-53
2022/08/23 12:56:24;;;;;;;;;;;27.30;79.30;;;;;;5031844;28;19920;-53
2022/08/23 12:58:52;;;;;;;;;;;27.70;79.10;;;;;;5030639;28;19969;-54
2022/08/23 13:01:23;;;;;;;;;;;28.10;77.70;;;;;;5024743;28;19944;-50
2022/08/23 13:03:51;;;;;;;;;;;28.40;77.80;;;;;;5031386;28;19913;-53
2022/08/23 13:06:49;;;;;;;;;;;28.40;76.40;;;;;;5031000;28;19925;-55
2022/08/23 13:09:25;;;;;;;;;;;28.30;76.80;;;;;;5029447;28;19920;-52
2022/08/23 13:11:51;;;;;;;;;;;28.10;76.10;;;;;;5030346;28;19913;-52
2022/08/23 13:23:08;;;;;;;;;;;26.70;79.40;;;;;;5019572;28;19925;-56
2022/08/23 13:25:35;;;;;;;;;;;26.40;80.00;;;;;;5021382;28;19914;-56
2022/08/23 13:28:20;;;;;;;;;;;26.20;80.70;;;;;;5013567;28;20292;-56
2022/08/23 13:30:57;;;;;;;;;;;26.20;80.70;;;;;;5031927;28;19913;-56
2022/08/23 13:33:23;;;;;;;;;;;26.20;81.20;;;;;;5032705;28;19909;-55
2022/08/23 13:35:50;;;;;;;;;;;26.20;80.60;;;;;;5032689;28;19920;-56
2022/08/23 13:38:24;;;;;;;;;;;26.60;80.00;;;;;;5032379;28;20358;-57
2022/08/23 13:40:49;;;;;;;;;;;26.90;79.00;;;;;;5032527;28;20004;-58
2022/08/23 13:43:21;;;;;;;;;;;27.50;77.90;;;;;;5032754;28;19951;-59
2022/08/23 13:45:48;;;;;;;;;;;27.80;77.60;;;;;;5013124;28;19913;-56
2022/08/23 13:48:20;;;;;;;;;;;28.30;76.70;;;;;;5028716;28;19944;-55
2022/08/23 13:50:46;;;;;;;;;;;28.50;76.30;;;;;;5022921;28;19955;-57
2022/08/23 13:53:11;;;;;;;;;;;28.80;75.60;;;;;;5019342;28;19936;-55
2022/08/23 13:55:47;;;;;;;;;;;29.10;73.70;;;;;;5033348;28;19913;-55
2022/08/23 13:58:16;;;;;;;;;;;28.90;72.70;;;;;;5037350;28;19917;-58
2022/08/23 14:00:41;;;;;;;;;;;28.30;73.20;;;;;;5012197;28;20044;-57
2022/08/23 14:03:07;;;;;;;;;;;27.90;74.10;;;;;;5027111;28;20020;-55
2022/08/23 14:05:33;;;;;;;;;;;27.60;74.90;;;;;;5034158;28;20430;-50
2022/08/23 14:07:58;;;;;;;;;;;27.70;76.00;;;;;;5036125;28;19913;-52
2022/08/23 14:10:25;;;;;;;;;;;28.30;75.70;;;;;;5035355;28;19924;-52
2022/08/23 14:12:52;;;;;;;;;;;28.90;74.70;;;;;;5034975;28;19917;-51
2022/08/23 14:15:18;;;;;;;;;;;29.20;73.00;;;;;;5035848;28;19909;-53
2022/08/23 14:17:45;;;;;;;;;;;29.30;72.60;;;;;;5024157;28;19914;-55
2022/08/23 14:20:11;;;;;;;;;;;29.60;71.60;;;;;;5032622;28;19955;-55
2022/08/23 14:22:37;;;;;;;;;;;30.00;70.10;;;;;;5036020;28;20322;-50
2022/08/23 14:25:03;;;;;;;;;;;30.20;70.00;;;;;;5035993;28;19924;-53
2022/08/23 14:27:28;;;;;;;;;;;30.40;69.00;;;;;;5035986;28;19921;-56
2022/08/23 14:29:54;;;;;;;;;;;30.60;68.60;;;;;;5035660;28;19913;-54
2022/08/23 14:32:20;;;;;;;;;;;30.50;67.40;;;;;;5035438;28;19970;-52
2022/08/23 14:34:45;;;;;;;;;;;30.30;68.10;;;;;;5036876;28;20008;-55
2022/08/23 14:37:11;;;;;;;;;;;29.90;68.20;;;;;;5035777;28;19932;-54
2022/08/23 14:39:36;;;;;;;;;;;29.40;68.60;;;;;;5033997;28;19960;-55
2022/08/23 14:42:03;;;;;;;;;;;29.10;69.50;;;;;;5035968;28;19935;-53
2022/08/23 14:44:28;;;;;;;;;;;28.90;69.90;;;;;;5027213;28;20420;-54